createdAt,value
2023-02-15T01:03:47.294Z,31.04
2023-02-15T01:04:47.370Z,30.83
2023-02-15T01:05:47.430Z,33.30
2023-02-15T01:06:47.523Z,31.27
2023-02-15T01:07:47.615Z,32.54
2023-02-15T01:08:47.708Z,30.40
2023-02-15T01:09:47.759Z,29.83
2023-02-15T01:10:47.856Z,31.21
2023-02-15T01:11:47.926Z,29.46
2023-02-15T01:12:48.014Z,31.38
2023-02-15T01:13:48.088Z,31.77
2023-02-15T01:14:48.173Z,30.30
2023-02-15T01:15:48.313Z,29.74
2023-02-15T01:16:48.337Z,31.22
2023-02-15T01:17:48.409Z,31.81
2023-02-15T01:18:48.493Z,33.04
2023-02-15T01:19:48.577Z,29.71
2023-02-15T01:20:48.647Z,30.97
2023-02-15T01:21:48.722Z,29.55
2023-02-15T01:22:48.807Z,31.43
2023-02-15T01:23:48.876Z,29.62
2023-02-15T01:24:48.957Z,30.51
2023-02-15T01:25:49.043Z,33.30
2023-02-15T01:26:49.129Z,31.03
2023-02-15T01:27:49.190Z,30.85
2023-02-15T01:28:49.287Z,33.64
2023-02-15T01:29:49.382Z,32.70
2023-02-15T01:30:49.488Z,33.57
2023-02-15T01:31:49.600Z,33.77
2023-02-15T01:32:49.577Z,30.84
2023-02-15T01:33:49.654Z,33.71
2023-02-15T01:34:49.718Z,30.36
2023-02-15T01:35:49.821Z,33.75
2023-02-15T01:36:49.884Z,30.60
2023-02-15T01:37:49.966Z,29.54
2023-02-15T01:38:50.040Z,31.06
2023-02-15T01:39:50.118Z,30.99
2023-02-15T01:40:50.199Z,29.91
2023-02-15T01:41:50.272Z,32.71
2023-02-15T01:42:50.349Z,31.20
2023-02-15T01:43:50.425Z,32.05
2023-02-15T01:44:50.535Z,33.77
2023-02-15T03:15:57.845Z,30.31
2023-02-15T03:16:57.883Z,31.90
2023-02-15T03:17:57.962Z,27.77
2023-02-15T03:18:58.068Z,31.71
2023-02-15T03:19:58.112Z,29.68
2023-02-15T03:20:58.193Z,30.33
2023-02-15T03:21:58.320Z,31.27
2023-02-15T03:22:58.351Z,28.38
2023-02-15T03:23:58.442Z,28.78
2023-02-15T03:24:58.504Z,30.01
2023-02-15T03:25:58.619Z,35.60
2023-02-15T03:26:58.675Z,35.64
2023-02-15T03:27:58.744Z,33.05
2023-02-15T03:28:58.825Z,25.97
2023-02-15T03:29:58.987Z,31.98
2023-02-15T03:30:59.110Z,30.89
2023-02-15T03:31:59.198Z,34.20
2023-02-15T03:32:59.170Z,33.12
2023-02-15T03:33:59.256Z,32.89
2023-02-15T03:34:59.335Z,29.76
2023-02-15T03:35:59.483Z,26.43
2023-02-15T03:36:59.490Z,28.69
2023-02-15T03:37:59.589Z,32.18
2023-02-15T03:38:59.675Z,36.04
2023-02-15T03:39:59.757Z,27.77
2023-02-15T03:40:59.849Z,29.97
2023-02-15T03:41:59.927Z,33.50
2023-02-15T03:43:00.009Z,28.21
2023-02-15T03:44:00.128Z,32.60
2023-02-15T03:45:00.189Z,28.13
2023-02-15T03:46:00.551Z,34.29
2023-02-15T03:47:00.374Z,32.59
2023-02-15T03:48:00.439Z,33.89
2023-02-15T03:50:00.597Z,31.35
2023-02-15T03:51:00.690Z,33.16
2023-02-15T03:52:00.777Z,33.17
2023-02-15T03:53:00.860Z,32.39
2023-02-15T03:54:00.938Z,31.80
2023-02-15T05:17:07.837Z,32.62
2023-02-15T05:18:07.926Z,35.86
2023-02-15T05:19:08.013Z,29.86
2023-02-15T05:20:08.100Z,34.26
2023-02-15T05:21:08.184Z,31.75
2023-02-15T05:22:08.255Z,38.89
2023-02-15T05:23:08.340Z,31.89
2023-02-15T05:24:08.421Z,33.16
2023-02-15T05:25:08.517Z,37.32
2023-02-15T05:26:08.579Z,34.65
2023-02-15T07:19:17.796Z,52.67
2023-02-15T07:20:17.894Z,48.43
2023-02-15T07:21:17.980Z,53.84
2023-02-15T07:22:18.240Z,51.57
2023-02-15T07:23:18.138Z,61.26
2023-02-15T07:24:18.211Z,57.38
2023-02-15T07:25:18.306Z,58.70
2023-02-15T07:26:18.371Z,63.23
2023-02-15T07:27:18.468Z,62.84
2023-02-15T07:28:18.544Z,59.53
2023-02-15T07:29:18.631Z,59.08
2023-02-15T07:30:18.803Z,64.23
2023-02-15T07:31:18.877Z,67.40
2023-02-15T07:32:18.922Z,64.99
2023-02-15T09:26:27.824Z,100.64
2023-02-15T09:27:27.892Z,104.22
2023-02-15T09:28:27.953Z,106.20
2023-02-15T09:29:28.006Z,102.97
2023-02-15T09:30:28.310Z,105.86
2023-02-15T09:31:28.249Z,103.15
2023-02-15T09:32:28.196Z,105.08
2023-02-15T09:33:28.263Z,102.63
2023-02-15T09:34:28.329Z,103.73
2023-02-15T09:35:28.387Z,101.43
2023-02-15T09:36:28.447Z,98.19
2023-02-15T09:37:28.496Z,96.63
2023-02-15T09:38:28.568Z,96.43
2023-02-15T09:39:28.621Z,100.96
2023-02-15T09:40:28.685Z,96.61
2023-02-15T09:41:28.750Z,97.04
2023-02-15T09:42:28.818Z,97.21
2023-02-15T09:43:28.877Z,95.01
2023-02-15T09:44:28.939Z,91.21
2023-02-15T09:45:29.018Z,93.87
2023-02-15T09:46:29.056Z,92.77
2023-02-15T09:47:29.112Z,85.22
2023-02-15T09:48:29.161Z,86.84
2023-02-15T09:49:29.277Z,89.32
2023-02-15T09:50:29.289Z,85.93
2023-02-15T09:51:29.342Z,87.69
2023-02-15T09:52:29.387Z,87.41
2023-02-15T09:53:29.463Z,86.83
2023-02-15T09:54:29.515Z,86.58
2023-02-15T09:55:29.574Z,94.70
2023-02-15T09:56:29.642Z,105.51
2023-02-15T09:57:29.698Z,113.94
2023-02-15T09:58:29.770Z,112.49
2023-02-15T09:59:29.828Z,108.21
2023-02-15T10:00:29.875Z,106.56
2023-02-15T10:01:29.990Z,104.57
2023-02-15T10:02:29.997Z,106.59
2023-02-15T10:03:30.058Z,101.56
2023-02-15T10:04:30.134Z,105.10
2023-02-15T10:05:30.178Z,100.92
2023-02-15T10:06:30.222Z,102.62
2023-02-15T10:07:30.276Z,98.31
2023-02-15T10:08:30.340Z,96.28
2023-02-15T10:09:30.402Z,93.38
2023-02-15T10:10:30.459Z,94.98
2023-02-15T10:11:30.527Z,91.59
2023-02-15T10:12:30.567Z,93.41
2023-02-15T10:13:30.627Z,89.10
2023-02-15T10:14:30.686Z,87.69
2023-02-15T10:15:30.740Z,91.40
2023-02-15T10:16:30.825Z,89.35
2023-02-15T10:17:30.852Z,88.50
2023-02-15T10:18:30.902Z,88.98
2023-02-15T10:19:30.967Z,87.45
2023-02-15T10:20:31.010Z,87.47
2023-02-15T10:21:31.055Z,90.76
2023-02-15T10:22:31.112Z,84.86
2023-02-15T12:38:37.831Z,85.39
2023-02-15T12:39:37.877Z,86.93
2023-02-15T12:40:37.928Z,85.35
2023-02-15T12:41:37.969Z,87.76
2023-02-15T12:42:38.021Z,82.92
2023-02-15T12:43:38.096Z,84.10
2023-02-15T12:44:38.181Z,86.04
2023-02-15T12:45:38.173Z,90.03
2023-02-15T12:46:38.476Z,85.92
2023-02-15T12:47:38.269Z,86.18
2023-02-15T12:48:40.776Z,86.80
2023-02-15T12:49:38.432Z,81.75
2023-02-15T12:50:38.500Z,84.83
2023-02-15T12:51:43.239Z,85.05
2023-02-15T12:52:38.573Z,85.21
2023-02-15T12:53:38.652Z,85.32
2023-02-15T12:54:38.657Z,85.97
2023-02-15T12:55:45.344Z,92.00
2023-02-15T12:56:39.740Z,85.77
2023-02-15T12:57:38.774Z,88.77
2023-02-15T12:58:38.817Z,93.96
2023-02-15T12:59:38.860Z,101.48
2023-02-15T13:00:38.954Z,111.98
2023-02-15T13:01:38.968Z,110.92
2023-02-15T13:02:38.986Z,107.82
2023-02-15T13:03:39.187Z,101.91
2023-02-15T13:04:39.071Z,102.55
2023-02-15T13:05:39.117Z,100.85
2023-02-15T13:06:39.160Z,97.53
2023-02-15T13:07:39.204Z,96.36
2023-02-15T13:08:39.258Z,95.06
2023-02-15T13:09:39.315Z,94.92
2023-02-15T13:10:39.321Z,94.55
2023-02-15T13:11:39.393Z,94.18
2023-02-15T13:12:39.407Z,90.71
2023-02-15T13:13:39.599Z,91.80
2023-02-15T13:14:39.533Z,89.83
2023-02-15T13:15:39.533Z,89.24
2023-02-15T13:16:39.651Z,91.27
2023-02-15T13:17:39.638Z,87.58
2023-02-15T13:18:39.675Z,87.34
2023-02-15T13:19:39.712Z,89.41
2023-02-15T13:20:39.764Z,89.06
2023-02-15T13:21:39.812Z,88.37
2023-02-15T13:22:39.848Z,88.81
2023-02-15T13:23:39.894Z,87.87
2023-02-15T13:24:39.939Z,86.26
2023-02-15T13:25:39.972Z,88.06
2023-02-15T13:26:40.035Z,83.89
2023-02-15T13:27:40.104Z,86.23
2023-02-15T13:28:40.166Z,88.39
2023-02-15T13:29:40.232Z,85.17
2023-02-15T13:30:40.277Z,84.79
2023-02-15T13:31:40.518Z,86.77
2023-02-15T13:32:40.412Z,84.43
2023-02-15T13:33:40.465Z,85.56
2023-02-15T13:34:40.539Z,86.75
2023-02-15T13:35:40.621Z,85.56
2023-02-15T13:36:40.689Z,83.67
2023-02-15T14:17:50.092Z,76.79
2023-02-15T15:43:47.805Z,72.06
2023-02-15T15:44:47.865Z,71.90
2023-02-15T15:45:47.944Z,72.04
2023-02-15T15:46:48.094Z,71.64
2023-02-15T15:47:53.481Z,73.89
2023-02-15T15:48:49.143Z,73.98
2023-02-15T15:49:48.199Z,74.31
2023-02-15T15:50:49.650Z,74.20
2023-02-15T15:51:48.299Z,73.68
2023-02-15T15:52:48.337Z,72.17
2023-02-15T15:53:48.382Z,71.20
2023-02-15T15:54:48.455Z,71.95
2023-02-15T15:55:48.467Z,72.64
2023-02-15T15:56:48.508Z,77.01
2023-02-15T15:57:48.542Z,74.66
2023-02-15T15:58:48.597Z,70.51
2023-02-15T15:59:48.624Z,74.03
2023-02-15T16:00:48.663Z,72.97
2023-02-15T16:01:48.790Z,72.40
2023-02-15T16:02:48.818Z,72.75
2023-02-15T16:03:48.844Z,75.81
2023-02-15T16:04:48.823Z,75.67
2023-02-15T16:05:48.872Z,75.11
2023-02-15T16:06:48.976Z,72.84
2023-02-15T16:07:49.012Z,71.74
2023-02-15T16:08:49.092Z,76.57
2023-02-15T16:09:49.176Z,69.44
2023-02-15T16:10:49.251Z,73.33
2023-02-15T16:11:49.330Z,75.99
2023-02-15T16:12:49.420Z,72.02
2023-02-15T16:13:49.520Z,72.79
2023-02-15T16:14:49.571Z,73.57
2023-02-15T16:15:49.679Z,75.05
2023-02-15T16:16:49.747Z,73.69
2023-02-15T16:17:49.827Z,69.93
2023-02-15T16:18:49.907Z,73.50
2023-02-15T16:19:49.982Z,72.96
2023-02-15T16:20:50.053Z,73.56
2023-02-15T16:21:50.155Z,72.00
2023-02-15T16:22:50.235Z,72.05
2023-02-15T16:23:50.302Z,71.13
2023-02-15T16:24:50.382Z,68.66
2023-02-15T16:25:50.453Z,73.44
2023-02-15T16:26:50.526Z,69.21
2023-02-15T16:27:50.615Z,71.84
2023-02-15T16:28:50.686Z,69.32
2023-02-15T16:29:50.866Z,70.27
2023-02-15T16:30:50.858Z,68.93
2023-02-15T16:31:50.975Z,71.24
2023-02-15T16:32:50.992Z,68.48
2023-02-15T16:33:51.083Z,71.08
2023-02-15T16:34:51.160Z,72.73
2023-02-15T16:35:51.356Z,72.39
2023-02-15T16:36:51.349Z,71.50
2023-02-15T16:37:51.415Z,67.70
2023-02-15T16:38:51.499Z,75.03
2023-02-15T16:39:51.577Z,70.07
2023-02-15T16:40:53.537Z,73.19
2023-02-15T16:41:51.722Z,69.36
2023-02-15T16:42:51.814Z,70.46
2023-02-15T16:43:51.880Z,72.88
2023-02-15T16:44:51.965Z,71.33
2023-02-15T16:45:52.044Z,70.87
2023-02-15T16:46:52.181Z,73.74
2023-02-15T16:47:52.203Z,71.64
2023-02-15T16:48:52.283Z,74.53
2023-02-15T16:49:52.351Z,73.99
2023-02-15T16:50:52.445Z,73.28
2023-02-15T16:51:52.521Z,68.28
2023-02-15T16:52:52.605Z,71.27
2023-02-15T16:53:52.703Z,71.57
2023-02-15T16:54:52.744Z,73.48
2023-02-15T16:55:52.850Z,71.41
2023-02-15T17:55:57.846Z,72.87
2023-02-15T17:56:59.632Z,67.11
2023-02-15T17:57:57.968Z,72.14
2023-02-15T17:58:58.060Z,71.76
2023-02-15T17:59:58.176Z,69.09
2023-02-15T18:00:58.267Z,68.45
2023-02-15T18:01:58.320Z,69.74
2023-02-15T18:02:58.414Z,67.62
2023-02-15T18:03:58.532Z,69.75
2023-02-15T18:04:58.589Z,64.49
2023-02-15T18:05:58.690Z,69.42
2023-02-15T18:06:58.793Z,69.80
2023-02-15T18:07:58.855Z,70.73
2023-02-15T18:08:58.984Z,68.27
2023-02-15T18:09:59.033Z,70.07
2023-02-15T18:10:59.145Z,67.80
2023-02-15T18:11:59.270Z,68.26
2023-02-15T18:12:59.320Z,65.95
2023-02-15T18:13:59.377Z,70.50
2023-02-15T18:14:59.504Z,68.77
2023-02-15T18:15:59.540Z,67.10
2023-02-15T18:16:59.654Z,68.57
2023-02-15T18:17:59.723Z,68.46
2023-02-15T18:18:59.813Z,66.99
2023-02-15T18:19:59.896Z,69.00
2023-02-15T18:21:00.016Z,67.10
2023-02-15T18:22:00.050Z,64.11
2023-02-15T18:23:00.136Z,67.64
2023-02-15T18:24:00.239Z,64.94
2023-02-15T18:25:00.300Z,65.29
2023-02-15T18:27:00.482Z,67.61
2023-02-15T19:50:07.847Z,62.21
2023-02-15T19:51:07.943Z,59.29
2023-02-15T19:52:08.025Z,58.71
2023-02-15T19:53:08.106Z,57.88
2023-02-15T19:54:08.208Z,62.60
2023-02-15T19:55:08.283Z,59.43
2023-02-15T19:56:08.383Z,58.59
2023-02-15T19:57:08.467Z,61.20
2023-02-15T20:01:08.865Z,60.77
2023-02-15T21:41:17.824Z,57.43
2023-02-15T21:42:17.928Z,52.67
2023-02-15T21:43:18.012Z,53.98
2023-02-15T21:44:18.103Z,53.96
2023-02-15T21:45:18.190Z,51.65
2023-02-15T21:46:18.312Z,54.87
2023-02-15T21:47:18.374Z,54.24
2023-02-15T21:48:18.465Z,53.62
2023-02-15T21:49:18.538Z,48.20
2023-02-15T21:50:18.629Z,54.39
2023-02-15T21:51:18.719Z,49.88
2023-02-15T21:52:18.826Z,52.26
2023-02-15T21:53:18.898Z,53.28
2023-02-15T21:54:18.996Z,55.21
2023-02-15T21:55:19.076Z,53.67
2023-02-15T21:56:19.170Z,51.40
2023-02-15T21:57:22.005Z,54.96
2023-02-15T21:58:19.327Z,56.11
2023-02-15T21:59:19.366Z,52.93
2023-02-15T22:00:19.429Z,52.39
2023-02-15T22:01:20.327Z,50.70
2023-02-15T22:02:19.529Z,50.84
2023-02-15T22:03:19.580Z,53.04
2023-02-15T22:04:19.631Z,53.62
2023-02-15T22:05:19.673Z,51.24
2023-02-15T22:06:19.733Z,51.69
2023-02-15T22:07:19.785Z,51.98
2023-02-15T22:08:19.823Z,54.10
2023-02-15T22:09:19.898Z,54.30
2023-02-15T23:47:27.839Z,41.10
2023-02-15T23:48:27.943Z,44.42
2023-02-15T23:49:28.031Z,42.08
2023-02-15T23:50:28.152Z,43.66
2023-02-15T23:51:28.220Z,43.82
2023-02-15T23:52:28.318Z,41.67
2023-02-15T23:53:28.416Z,44.29
2023-02-15T23:54:28.516Z,41.58
2023-02-15T23:55:28.605Z,43.95
2023-02-15T23:56:28.696Z,42.25
